createdAt,value
2018-07-21T00:00:28.745Z,94865.54
2018-07-21T00:02:55.122Z,94867.17
2018-07-21T00:05:21.597Z,94865.86
2018-07-21T00:07:47.966Z,94871.89
2018-07-21T00:10:14.367Z,94866.97
2018-07-21T00:12:40.751Z,94882.91
2018-07-21T00:15:07.079Z,94880.07
2018-07-21T00:17:33.416Z,94880.88
2018-07-21T00:19:59.785Z,94885.63
2018-07-21T00:22:26.116Z,94889.50
2018-07-21T00:24:52.446Z,94892.80
2018-07-21T00:27:18.769Z,94892.55
2018-07-21T00:29:45.107Z,94903.27
2018-07-21T00:32:11.476Z,94907.14
2018-07-21T00:34:37.880Z,94905.19
2018-07-21T00:37:04.201Z,94902.31
2018-07-21T00:39:30.560Z,94894.66
2018-07-21T00:41:56.889Z,94897.14
2018-07-21T00:44:23.249Z,94895.63
2018-07-21T00:46:49.627Z,94893.52
2018-07-21T00:49:15.976Z,94899.50
2018-07-21T00:51:42.359Z,94899.92
2018-07-21T00:54:08.728Z,94897.73
2018-07-21T00:56:35.084Z,94899.97
2018-07-21T00:59:01.478Z,94897.91
2018-07-21T01:01:27.853Z,94903.13
2018-07-21T01:03:54.183Z,94900.69
2018-07-21T01:06:20.616Z,94896.41
2018-07-21T01:08:46.957Z,94899.91
2018-07-21T01:11:13.397Z,94902.95
2018-07-21T01:13:39.813Z,94901.76
2018-07-21T01:16:06.248Z,94906.14
2018-07-21T01:18:32.705Z,94911.05
2018-07-21T01:20:59.062Z,94903.82
2018-07-21T01:23:25.398Z,94914.20
2018-07-21T01:25:51.837Z,94911.19
2018-07-21T01:28:18.171Z,94911.19
2018-07-21T01:30:44.498Z,94906.97
2018-07-21T01:33:10.842Z,94902.17
2018-07-21T01:35:37.161Z,94904.80
2018-07-21T01:38:03.498Z,94901.03
2018-07-21T01:40:29.990Z,94904.68
2018-07-21T01:42:56.364Z,94896.80
2018-07-21T01:45:22.780Z,94900.51
2018-07-21T01:47:49.118Z,94898.19
2018-07-21T01:50:15.556Z,94901.99
2018-07-21T01:52:41.891Z,94894.42
2018-07-21T01:55:08.227Z,94897.55
2018-07-21T01:57:34.571Z,94898.33
2018-07-21T02:00:00.971Z,94898.90
2018-07-21T02:02:27.323Z,94896.39
2018-07-21T02:04:53.852Z,94898.23
2018-07-21T02:07:20.204Z,94893.74
2018-07-21T02:09:46.589Z,94892.15
2018-07-21T02:12:12.928Z,94891.33
2018-07-21T02:14:39.313Z,94891.22
2018-07-21T02:17:05.640Z,94886.97
2018-07-21T02:19:31.996Z,94892.02
2018-07-21T02:21:58.340Z,94895.73
2018-07-21T02:24:24.663Z,94897.95
2018-07-21T02:26:51.006Z,94902.28
2018-07-21T02:29:17.323Z,94899.79
2018-07-21T02:31:43.704Z,94896.53
2018-07-21T02:34:10.036Z,94898.41
2018-07-21T02:36:36.402Z,94893.26
2018-07-21T02:39:02.778Z,94901.90
2018-07-21T02:41:29.159Z,94899.38
2018-07-21T02:43:55.488Z,94903.22
2018-07-21T02:46:21.856Z,94905.19
2018-07-21T02:48:48.187Z,94913.72
2018-07-21T02:51:14.567Z,94913.80
2018-07-21T02:53:40.892Z,94910.70
2018-07-21T02:56:07.305Z,94909.84
2018-07-21T02:58:33.706Z,94909.05
2018-07-21T03:01:00.053Z,94908.23
2018-07-21T03:03:26.579Z,94904.72
2018-07-21T03:05:52.940Z,94916.21
2018-07-21T03:08:19.308Z,94914.42
2018-07-21T03:10:45.792Z,94918.07
2018-07-21T03:13:12.194Z,94916.27
2018-07-21T03:15:38.580Z,94917.61
2018-07-21T03:18:05.098Z,94925.13
2018-07-21T03:20:31.631Z,94915.38
2018-07-21T03:22:57.996Z,94921.33
2018-07-21T03:25:24.337Z,94921.58
2018-07-21T03:27:50.723Z,94927.44
2018-07-21T03:30:17.103Z,94925.17
2018-07-21T03:32:43.508Z,94926.63
2018-07-21T03:35:09.882Z,94927.45
2018-07-21T03:37:36.218Z,94924.11
2018-07-21T03:40:02.560Z,94925.84
2018-07-21T03:42:28.937Z,94930.09
2018-07-21T03:44:55.313Z,94927.23
2018-07-21T03:47:21.645Z,94920.43
2018-07-21T03:49:48.006Z,94923.94
2018-07-21T03:52:14.332Z,94923.23
2018-07-21T03:54:40.718Z,94920.73
2018-07-21T03:57:07.186Z,94923.60
2018-07-21T03:59:33.520Z,94925.00
2018-07-21T04:01:59.882Z,94921.77
2018-07-21T04:04:26.364Z,94927.19
2018-07-21T04:06:52.754Z,94931.67
2018-07-21T04:09:19.082Z,94931.11
2018-07-21T04:11:45.471Z,94935.03
2018-07-21T04:14:11.783Z,94941.28
2018-07-21T04:16:38.198Z,94943.61
2018-07-21T04:19:04.568Z,94939.16
2018-07-21T04:21:30.887Z,94942.03
2018-07-21T04:23:57.231Z,94942.25
2018-07-21T04:26:23.572Z,94945.52
2018-07-21T04:28:49.890Z,94951.88
2018-07-21T04:31:16.289Z,94945.41
2018-07-21T04:33:42.611Z,94949.09
2018-07-21T04:36:08.971Z,94948.09
2018-07-21T04:38:35.300Z,94949.81
2018-07-21T04:41:01.828Z,94947.69
2018-07-21T04:43:28.154Z,94942.08
2018-07-21T04:45:54.470Z,94941.11
2018-07-21T04:48:20.862Z,94945.98
2018-07-21T04:50:47.884Z,94949.86
2018-07-21T04:53:14.211Z,94943.31
2018-07-21T04:55:40.585Z,94951.73
2018-07-21T04:58:06.904Z,94952.12
2018-07-21T05:00:33.371Z,94958.38
2018-07-21T05:02:59.710Z,94955.25
2018-07-21T05:05:26.171Z,94955.55
2018-07-21T05:07:52.508Z,94958.75
2018-07-21T05:10:18.844Z,94959.64
2018-07-21T05:12:45.172Z,94966.24
2018-07-21T05:15:11.552Z,94959.10
2018-07-21T05:17:37.859Z,94958.58
2018-07-21T05:20:04.267Z,94958.69
2018-07-21T05:22:30.598Z,94963.44
2018-07-21T05:24:56.929Z,94959.19
2018-07-21T05:27:23.335Z,94955.16
2018-07-21T05:29:49.696Z,94959.31
2018-07-21T05:32:16.028Z,94964.36
2018-07-21T05:34:42.412Z,94966.21
2018-07-21T05:37:08.754Z,94974.38
2018-07-21T05:39:35.082Z,94971.41
2018-07-21T05:42:01.401Z,94968.70
2018-07-21T05:44:27.731Z,94972.73
2018-07-21T05:46:54.058Z,94973.05
2018-07-21T05:49:20.492Z,94976.81
2018-07-21T05:51:46.868Z,94975.87
2018-07-21T05:54:13.921Z,94975.75
2018-07-21T05:56:40.272Z,94976.92
2018-07-21T05:59:06.602Z,94974.89
2018-07-21T06:01:32.980Z,94973.89
2018-07-21T06:03:59.324Z,94974.82
2018-07-21T06:06:25.765Z,94978.37
2018-07-21T06:08:52.091Z,94981.93
2018-07-21T06:11:18.439Z,94977.37
2018-07-21T06:13:44.776Z,94976.91
2018-07-21T06:16:11.182Z,94975.31
2018-07-21T06:18:37.530Z,94972.12
2018-07-21T06:21:03.906Z,94976.37
2018-07-21T06:23:30.266Z,94975.90
2018-07-21T06:25:56.656Z,94967.41
2018-07-21T06:28:22.996Z,94977.08
2018-07-21T06:30:49.316Z,94968.70
2018-07-21T06:33:15.647Z,94966.98
2018-07-21T06:35:42.026Z,94963.05
2018-07-21T06:38:08.405Z,94969.03
2018-07-21T06:40:34.724Z,94964.80
2018-07-21T06:43:01.100Z,94956.30
2018-07-21T06:45:27.766Z,94957.20
2018-07-21T06:47:54.151Z,94955.37
2018-07-21T06:50:20.487Z,94960.93
2018-07-21T06:52:46.825Z,94956.88
2018-07-21T06:55:13.178Z,94956.86
2018-07-21T06:57:39.564Z,94952.78
2018-07-21T07:00:05.947Z,94953.45
2018-07-21T07:02:32.276Z,94954.27
2018-07-21T07:04:58.642Z,94948.27
2018-07-21T07:07:24.970Z,94950.94
2018-07-21T07:09:51.331Z,94950.25
2018-07-21T07:12:17.663Z,94946.09
2018-07-21T07:14:44.029Z,94945.97
2018-07-21T07:17:10.368Z,94937.59
2018-07-21T07:19:36.703Z,94940.02
2018-07-21T07:22:03.027Z,94933.27
2018-07-21T07:24:29.363Z,94935.06
2018-07-21T07:26:55.728Z,94935.73
2018-07-21T07:29:22.139Z,94935.86
2018-07-21T07:31:48.512Z,94928.52
2018-07-21T07:34:14.849Z,94931.38
2018-07-21T07:36:41.172Z,94935.93
2018-07-21T07:39:07.544Z,94939.34
2018-07-21T07:41:33.863Z,94934.11
2018-07-21T07:44:00.205Z,94935.47
2018-07-21T07:46:26.588Z,94930.42
2018-07-21T07:48:52.971Z,94934.92
2018-07-21T07:51:19.304Z,94930.23
2018-07-21T07:53:45.661Z,94932.88
2018-07-21T07:56:11.992Z,94924.56
2018-07-21T07:58:38.315Z,94927.21
2018-07-21T08:01:04.643Z,94926.22
2018-07-21T08:03:31.035Z,94923.28
2018-07-21T08:05:58.103Z,94922.94
2018-07-21T08:08:24.513Z,94925.57
2018-07-21T08:10:50.819Z,94926.17
2018-07-21T08:13:17.191Z,94928.92
2018-07-21T08:15:43.519Z,94936.75
2018-07-21T08:18:10.911Z,94933.75
2018-07-21T08:20:37.314Z,94930.53
2018-07-21T08:23:03.674Z,94939.63
2018-07-21T08:25:30.007Z,94948.24
2018-07-21T08:27:56.384Z,94941.36
2018-07-21T08:30:22.739Z,94956.96
2018-07-21T08:32:49.111Z,94949.69
2018-07-21T08:35:15.431Z,94950.77
2018-07-21T08:37:41.754Z,94956.10
2018-07-21T08:40:08.132Z,94957.84
2018-07-21T08:42:34.495Z,94954.09
2018-07-21T08:45:00.861Z,94949.60
2018-07-21T08:47:27.203Z,94960.16
2018-07-21T08:49:53.619Z,94946.34
2018-07-21T08:52:19.937Z,94949.83
2018-07-21T08:54:46.319Z,94945.66
2018-07-21T08:57:12.679Z,94941.45
2018-07-21T08:59:39.015Z,94952.22
2018-07-21T09:02:05.344Z,94952.06
2018-07-21T09:04:31.680Z,94945.25
2018-07-21T09:06:58.063Z,94942.59
2018-07-21T09:09:24.435Z,94944.91
2018-07-21T09:11:50.764Z,94948.78
2018-07-21T09:14:17.143Z,94951.94
2018-07-21T09:16:43.478Z,94946.67
2018-07-21T09:19:09.863Z,94944.37
2018-07-21T09:21:36.282Z,94942.50
2018-07-21T09:24:02.601Z,94949.86
2018-07-21T09:26:28.987Z,94953.34
2018-07-21T09:28:55.350Z,94948.59
2018-07-21T09:31:21.723Z,94940.26
2018-07-21T09:33:48.085Z,94942.41
2018-07-21T09:36:14.414Z,94939.72
2018-07-21T09:38:40.764Z,94941.84
2018-07-21T09:41:07.172Z,94937.20
2018-07-21T09:43:33.682Z,94935.30
2018-07-21T09:46:00.112Z,94940.26
2018-07-21T09:48:26.484Z,94944.81
2018-07-21T09:50:52.794Z,94941.65
2018-07-21T09:53:19.121Z,94937.61
2018-07-21T09:55:45.526Z,94936.12
2018-07-21T09:58:11.865Z,94932.49
2018-07-21T10:00:38.212Z,94931.67
2018-07-21T10:03:04.612Z,94936.09
2018-07-21T10:05:30.938Z,94930.25
2018-07-21T10:07:57.393Z,94934.39
2018-07-21T10:10:23.755Z,94917.02
2018-07-21T10:12:50.087Z,94919.95
2018-07-21T10:15:16.410Z,94921.25
2018-07-21T10:17:42.792Z,94919.77
2018-07-21T10:20:09.215Z,94913.01
2018-07-21T10:22:35.547Z,94910.07
2018-07-21T10:25:01.906Z,94917.62
2018-07-21T10:27:28.267Z,94910.67
2018-07-21T10:29:54.703Z,94917.78
2018-07-21T10:32:21.055Z,94905.84
2018-07-21T10:34:47.420Z,94911.74
2018-07-21T10:37:13.762Z,94906.98
2018-07-21T10:39:40.200Z,94912.09
2018-07-21T10:42:06.561Z,94914.17
2018-07-21T10:44:32.963Z,94910.39
2018-07-21T10:46:59.363Z,94916.39
2018-07-21T10:49:25.765Z,94914.55
2018-07-21T10:51:52.132Z,94913.29
2018-07-21T10:54:18.559Z,94909.50
2018-07-21T10:56:44.994Z,94906.50
2018-07-21T10:59:11.372Z,94911.71
2018-07-21T11:01:37.718Z,94910.92
2018-07-21T11:04:04.062Z,94914.80
2018-07-21T11:06:30.420Z,94911.05
2018-07-21T11:08:56.745Z,94907.32
2018-07-21T11:11:23.076Z,94914.42
2018-07-21T11:13:49.424Z,94911.01
2018-07-21T11:16:15.811Z,94911.95
2018-07-21T11:18:42.178Z,94909.37
2018-07-21T11:21:08.538Z,94905.98
2018-07-21T11:23:35.040Z,94901.98
2018-07-21T11:26:01.424Z,94903.58
2018-07-21T11:28:27.866Z,94907.53
2018-07-21T11:30:54.271Z,94907.02
2018-07-21T11:33:20.670Z,94905.77
2018-07-21T11:35:47.045Z,94906.48
2018-07-21T11:38:13.427Z,94903.77
2018-07-21T11:40:39.765Z,94901.53
2018-07-21T11:43:06.119Z,94899.06
2018-07-21T11:45:32.538Z,94900.70
2018-07-21T11:47:58.953Z,94897.70
2018-07-21T11:50:25.340Z,94892.64
2018-07-21T11:52:51.743Z,94890.71
2018-07-21T11:55:18.102Z,94892.89
2018-07-21T11:57:44.497Z,94897.47
2018-07-21T12:00:10.867Z,94898.92
2018-07-21T12:02:37.254Z,94902.59
2018-07-21T12:05:03.636Z,94895.30
2018-07-21T12:07:29.993Z,94889.11
2018-07-21T12:09:56.346Z,94891.18
2018-07-21T12:12:22.696Z,94885.27
2018-07-21T12:14:49.079Z,94884.10
2018-07-21T12:17:15.445Z,94882.73
2018-07-21T12:19:41.790Z,94880.04
2018-07-21T12:22:08.110Z,94874.73
2018-07-21T12:24:34.497Z,94879.73
2018-07-21T12:27:00.922Z,94871.20
2018-07-21T12:29:27.347Z,94873.86
2018-07-21T12:31:53.700Z,94872.02
2018-07-21T12:34:20.278Z,94866.89
2018-07-21T12:36:46.563Z,94859.31
2018-07-21T12:39:12.920Z,94863.02
2018-07-21T12:41:39.279Z,94866.61
2018-07-21T12:44:05.644Z,94867.20
2018-07-21T12:46:32.002Z,94860.89
2018-07-21T12:48:58.321Z,94855.70
2018-07-21T12:51:24.667Z,94855.37
2018-07-21T12:53:51.031Z,94858.64
2018-07-21T12:56:17.371Z,94858.88
2018-07-21T12:58:43.846Z,94861.19
2018-07-21T13:01:10.214Z,94860.05
2018-07-21T13:03:36.567Z,94859.95
2018-07-21T13:06:03.055Z,94859.59
2018-07-21T13:08:29.454Z,94856.37
2018-07-21T13:10:55.949Z,94852.64
2018-07-21T13:13:22.435Z,94849.75
2018-07-21T13:15:48.808Z,94846.82
2018-07-21T13:18:15.210Z,94846.28
2018-07-21T13:20:41.593Z,94844.33
2018-07-21T13:23:07.930Z,94837.26
2018-07-21T13:25:34.275Z,94839.38
2018-07-21T13:28:00.689Z,94839.09
2018-07-21T13:30:27.043Z,94831.38
2018-07-21T13:32:53.408Z,94840.80
2018-07-21T13:35:19.861Z,94837.39
2018-07-21T13:37:46.307Z,94834.95
2018-07-21T13:40:12.678Z,94832.66
2018-07-21T13:42:39.039Z,94825.48
2018-07-21T13:45:05.375Z,94827.61
2018-07-21T13:47:31.698Z,94824.70
2018-07-21T13:49:58.022Z,94824.25
2018-07-21T13:52:24.458Z,94823.06
2018-07-21T13:54:50.876Z,94821.18
2018-07-21T13:57:17.216Z,94831.02
2018-07-21T13:59:43.563Z,94833.07
2018-07-21T14:02:09.968Z,94829.43
2018-07-21T14:04:36.284Z,94834.01
2018-07-21T14:07:02.619Z,94833.78
2018-07-21T14:09:29.008Z,94838.48
2018-07-21T14:11:55.360Z,94833.20
2018-07-21T14:14:21.699Z,94835.30
2018-07-21T14:16:48.144Z,94837.73
2018-07-21T14:19:14.502Z,94833.13
2018-07-21T14:21:40.861Z,94830.61
2018-07-21T14:24:07.359Z,94827.36
2018-07-21T14:26:33.732Z,94829.07
2018-07-21T14:29:00.083Z,94827.54
2018-07-21T14:31:26.505Z,94829.95
2018-07-21T14:33:52.879Z,94834.19
2018-07-21T14:36:19.339Z,94835.43
2018-07-21T14:38:45.614Z,94831.30
2018-07-21T14:41:12.044Z,94833.82
2018-07-21T14:43:38.367Z,94829.70
2018-07-21T14:46:04.726Z,94840.71
2018-07-21T14:48:31.185Z,94838.70
2018-07-21T14:50:57.530Z,94832.77
2018-07-21T14:53:23.852Z,94834.25
2018-07-21T14:55:50.184Z,94834.89
2018-07-21T14:58:16.637Z,94835.41
2018-07-21T15:00:43.057Z,94830.52
2018-07-21T15:03:09.456Z,94831.25
2018-07-21T15:05:35.838Z,94824.52
2018-07-21T15:08:02.196Z,94826.63
2018-07-21T15:10:28.581Z,94827.11
2018-07-21T15:12:55.136Z,94827.05
2018-07-21T15:15:21.679Z,94827.05
2018-07-21T15:17:48.130Z,94821.52
2018-07-21T15:20:14.495Z,94823.56
2018-07-21T15:22:40.935Z,94818.81
2018-07-21T15:25:07.279Z,94823.36
2018-07-21T15:27:33.667Z,94820.63
2018-07-21T15:30:00.024Z,94819.47
2018-07-21T15:32:26.437Z,94816.45
2018-07-21T15:34:52.787Z,94816.63
2018-07-21T15:37:19.165Z,94820.95
2018-07-21T15:39:45.511Z,94817.45
2018-07-21T15:42:11.931Z,94818.33
2018-07-21T15:44:38.279Z,94815.47
2018-07-21T15:47:04.676Z,94814.67
2018-07-21T15:49:31.025Z,94821.36
2018-07-21T15:51:57.360Z,94819.81
2018-07-21T15:54:23.716Z,94817.17
2018-07-21T15:56:50.112Z,94818.35
2018-07-21T15:59:16.509Z,94817.05
2018-07-21T16:01:42.843Z,94815.23
2018-07-21T16:04:09.212Z,94809.05
2018-07-21T16:06:35.555Z,94816.99
2018-07-21T16:09:02.101Z,94812.75
2018-07-21T16:11:28.433Z,94815.17
2018-07-21T16:13:54.811Z,94812.77
2018-07-21T16:16:21.165Z,94814.58
2018-07-21T16:18:47.554Z,94815.77
2018-07-21T16:21:13.970Z,94814.92
2018-07-21T16:23:40.300Z,94815.64
2018-07-21T16:26:06.631Z,94818.30
2018-07-21T16:28:33.131Z,94818.81
2018-07-21T16:30:59.558Z,94818.84
2018-07-21T16:33:25.977Z,94820.94
2018-07-21T16:35:52.349Z,94824.02
2018-07-21T16:38:18.746Z,94828.95
2018-07-21T16:40:45.132Z,94832.09
2018-07-21T16:43:11.486Z,94830.09
2018-07-21T16:45:37.964Z,94832.56
2018-07-21T16:48:04.334Z,94835.38
2018-07-21T16:50:30.725Z,94840.28
2018-07-21T16:52:57.267Z,94842.69
2018-07-21T16:55:23.644Z,94847.30
2018-07-21T16:57:50.048Z,94850.80
2018-07-21T17:00:16.389Z,94848.22
2018-07-21T17:02:42.790Z,94849.00
2018-07-21T17:05:09.172Z,94852.77
2018-07-21T17:07:35.558Z,94854.46
2018-07-21T17:10:01.932Z,94853.30
2018-07-21T17:12:28.328Z,94853.41
2018-07-21T17:14:54.750Z,94852.88
2018-07-21T17:17:21.150Z,94847.16
2018-07-21T17:19:47.523Z,94844.45
2018-07-21T17:22:13.899Z,94857.72
2018-07-21T17:24:40.256Z,94851.81
2018-07-21T17:27:06.815Z,94851.34
2018-07-21T17:29:33.369Z,94854.29
2018-07-21T17:31:59.744Z,94858.72
2018-07-21T17:34:26.121Z,94856.19
2018-07-21T17:36:52.625Z,94856.89
2018-07-21T17:39:19.301Z,94854.81
2018-07-21T17:41:45.711Z,94862.42
2018-07-21T17:44:12.099Z,94858.70
2018-07-21T17:46:38.475Z,94861.47
2018-07-21T17:49:04.814Z,94858.60
2018-07-21T17:51:31.197Z,94862.81
2018-07-21T17:53:57.625Z,94861.92
2018-07-21T17:56:24.024Z,94857.25
2018-07-21T17:58:50.404Z,94859.31
2018-07-21T18:01:16.737Z,94867.50
2018-07-21T18:03:43.173Z,94864.08
2018-07-21T18:06:09.547Z,94860.79
2018-07-21T18:08:35.904Z,94862.09
2018-07-21T18:11:02.262Z,94861.97
2018-07-21T18:13:28.734Z,94863.33
2018-07-21T18:15:55.084Z,94863.39
2018-07-21T18:18:21.434Z,94869.34
2018-07-21T18:20:47.836Z,94872.91
2018-07-21T18:23:14.194Z,94872.98
2018-07-21T18:25:40.575Z,94871.44
2018-07-21T18:28:06.943Z,94866.84
2018-07-21T18:30:33.437Z,94871.50
2018-07-21T18:32:59.870Z,94870.08
2018-07-21T18:35:26.255Z,94877.15
2018-07-21T18:37:52.657Z,94876.61
2018-07-21T18:40:19.068Z,94879.27
2018-07-21T18:42:45.470Z,94881.08
2018-07-21T18:45:11.871Z,94877.06
2018-07-21T18:47:38.272Z,94882.49
2018-07-21T18:50:04.815Z,94883.66
2018-07-21T18:52:31.247Z,94885.25
2018-07-21T18:54:57.634Z,94883.30
2018-07-21T18:57:24.021Z,94882.25
2018-07-21T18:59:50.485Z,94882.09
2018-07-21T19:02:16.991Z,94881.44
2018-07-21T19:04:43.392Z,94886.92
2018-07-21T19:07:09.808Z,94887.81
2018-07-21T19:09:36.163Z,94893.91
2018-07-21T19:12:02.601Z,94893.97
2018-07-21T19:14:28.953Z,94896.68
2018-07-21T19:16:55.440Z,94898.61
2018-07-21T19:19:21.796Z,94896.52
2018-07-21T19:21:48.144Z,94897.56
2018-07-21T19:24:14.487Z,94896.70
2018-07-21T19:26:40.882Z,94890.49
2018-07-21T19:29:07.239Z,94890.93
2018-07-21T19:31:33.591Z,94891.59
2018-07-21T19:33:59.926Z,94883.72
2018-07-21T19:36:26.287Z,94889.29
2018-07-21T19:38:52.657Z,94892.95
2018-07-21T19:41:19.054Z,94895.29
2018-07-21T19:43:45.458Z,94894.87
2018-07-21T19:46:11.817Z,94892.21
2018-07-21T19:48:38.169Z,94891.82
2018-07-21T19:51:04.613Z,94887.41
2018-07-21T19:53:30.930Z,94887.86
2018-07-21T19:55:57.323Z,94883.76
2018-07-21T19:58:23.680Z,94884.73
2018-07-21T20:00:50.076Z,94885.81
2018-07-21T20:03:16.443Z,94883.84
2018-07-21T20:05:42.775Z,94891.01
2018-07-21T20:08:09.129Z,94898.86
2018-07-21T20:10:35.471Z,94902.81
2018-07-21T20:13:01.870Z,94898.58
2018-07-21T20:15:28.235Z,94893.48
2018-07-21T20:17:54.621Z,94891.08
2018-07-21T20:20:21.056Z,94897.94
2018-07-21T20:22:47.451Z,94903.01
2018-07-21T20:25:13.860Z,94901.37
2018-07-21T20:27:40.213Z,94907.02
2018-07-21T20:30:06.574Z,94907.16
2018-07-21T20:32:32.939Z,94898.52
2018-07-21T20:34:59.314Z,94902.81
2018-07-21T20:37:25.689Z,94901.59
2018-07-21T20:39:52.032Z,94898.39
2018-07-21T20:42:18.597Z,94898.06
2018-07-21T20:44:44.953Z,94880.69
2018-07-21T20:47:11.330Z,94892.26
2018-07-21T20:49:37.678Z,94884.12
2018-07-21T20:52:04.031Z,94881.72
2018-07-21T20:54:30.450Z,94880.77
2018-07-21T20:56:56.811Z,94882.73
2018-07-21T20:59:23.141Z,94880.36
2018-07-21T21:01:49.598Z,94874.55
2018-07-21T21:04:15.940Z,94873.41
2018-07-21T21:06:42.305Z,94872.07
2018-07-21T21:09:08.643Z,94874.04
2018-07-21T21:11:34.968Z,94880.09
2018-07-21T21:14:01.293Z,94880.02
2018-07-21T21:16:27.650Z,94883.55
2018-07-21T21:18:54.062Z,94891.98
2018-07-21T21:21:20.715Z,94892.98
2018-07-21T21:23:47.199Z,94885.70
2018-07-21T21:26:13.534Z,94882.88
2018-07-21T21:28:39.995Z,94885.28
2018-07-21T21:31:06.372Z,94887.41
2018-07-21T21:33:32.774Z,94888.56
2018-07-21T21:35:59.093Z,94889.45
2018-07-21T21:38:25.451Z,94897.62
2018-07-21T21:40:51.878Z,94889.98
2018-07-21T21:43:18.300Z,94892.08
2018-07-21T21:45:44.633Z,94889.64
2018-07-21T21:48:11.048Z,94893.51
2018-07-21T21:50:37.375Z,94891.13
2018-07-21T21:53:04.434Z,94888.30
2018-07-21T21:55:30.788Z,94889.38
2018-07-21T21:57:57.202Z,94894.40
2018-07-21T22:00:23.610Z,94889.70
2018-07-21T22:02:49.939Z,94884.41
2018-07-21T22:05:16.404Z,94887.59
2018-07-21T22:07:42.832Z,94894.13
2018-07-21T22:10:09.226Z,94885.22
2018-07-21T22:12:35.596Z,94884.88
2018-07-21T22:15:02.000Z,94883.46
2018-07-21T22:17:28.326Z,94883.79
2018-07-21T22:19:54.707Z,94876.80
2018-07-21T22:22:21.047Z,94876.23
2018-07-21T22:24:47.547Z,94876.09
2018-07-21T22:27:13.965Z,94881.41
2018-07-21T22:29:40.328Z,94882.34
2018-07-21T22:32:06.679Z,94881.95
2018-07-21T22:34:33.032Z,94876.00
2018-07-21T22:36:59.436Z,94872.34
2018-07-21T22:39:25.807Z,94878.81
2018-07-21T22:41:52.139Z,94872.27
2018-07-21T22:44:18.496Z,94874.52
2018-07-21T22:46:44.840Z,94869.33
2018-07-21T22:49:11.207Z,94879.99
2018-07-21T22:51:37.597Z,94879.23
2018-07-21T22:54:03.969Z,94876.61
2018-07-21T22:56:30.372Z,94877.38
2018-07-21T22:58:56.702Z,94875.31
2018-07-21T23:01:23.085Z,94872.47
2018-07-21T23:03:49.438Z,94880.09
2018-07-21T23:06:15.833Z,94875.93
2018-07-21T23:08:42.186Z,94878.81
2018-07-21T23:11:08.551Z,94873.50
2018-07-21T23:13:34.942Z,94868.02
2018-07-21T23:16:01.295Z,94869.02
2018-07-21T23:18:27.679Z,94875.98
2018-07-21T23:20:54.185Z,94871.36
2018-07-21T23:23:20.716Z,94865.08
2018-07-21T23:25:47.148Z,94863.53
2018-07-21T23:28:13.579Z,94849.59
2018-07-21T23:30:39.968Z,94845.86
2018-07-21T23:33:06.316Z,94853.60
2018-07-21T23:35:32.717Z,94850.56
2018-07-21T23:37:59.112Z,94851.64
2018-07-21T23:40:25.623Z,94854.90
2018-07-21T23:42:51.967Z,94848.56
2018-07-21T23:45:18.303Z,94846.73
2018-07-21T23:47:44.635Z,94848.09
2018-07-21T23:50:11.020Z,94844.28
2018-07-21T23:52:37.396Z,94840.91
2018-07-21T23:55:03.809Z,94837.50
2018-07-21T23:57:30.170Z,94847.22
2018-07-21T23:59:56.577Z,94850.59
